createdAt,value
2018-12-17T00:01:12.170Z,5.00
2018-12-17T00:03:39.792Z,5.00
2018-12-17T00:06:07.621Z,5.00
2018-12-17T00:08:35.743Z,5.10
2018-12-17T00:11:04.300Z,5.10
2018-12-17T00:13:32.120Z,5.10
2018-12-17T00:16:00.407Z,5.00
2018-12-17T00:18:28.274Z,5.00
2018-12-17T00:20:55.883Z,5.10
2018-12-17T00:23:23.915Z,5.10
2018-12-17T00:25:52.896Z,5.10
2018-12-17T00:28:21.261Z,5.20
2018-12-17T00:30:49.034Z,5.10
2018-12-17T00:33:16.662Z,5.20
2018-12-17T00:35:44.323Z,5.10
2018-12-17T00:38:12.171Z,5.10
2018-12-17T00:40:40.023Z,5.10
2018-12-17T00:43:07.983Z,5.20
2018-12-17T00:45:35.673Z,5.20
2018-12-17T00:48:03.303Z,5.20
2018-12-17T00:50:31.051Z,5.30
2018-12-17T00:52:58.722Z,5.20
2018-12-17T00:55:26.385Z,5.30
2018-12-17T00:57:53.980Z,5.30
2018-12-17T01:00:21.599Z,5.20
2018-12-17T01:02:50.663Z,5.20
2018-12-17T01:05:18.305Z,5.20
2018-12-17T01:07:46.703Z,5.20
2018-12-17T01:10:14.482Z,5.10
2018-12-17T01:12:42.121Z,5.00
2018-12-17T01:15:09.868Z,5.00
2018-12-17T01:17:37.611Z,4.90
2018-12-17T01:20:06.314Z,5.00
2018-12-17T01:22:34.258Z,4.90
2018-12-17T01:25:01.897Z,5.10
2018-12-17T01:27:30.297Z,5.10
2018-12-17T01:29:58.183Z,5.10
2018-12-17T01:32:26.006Z,5.20
2018-12-17T01:34:53.890Z,5.20
2018-12-17T01:37:21.517Z,5.20
2018-12-17T01:39:49.306Z,5.20
2018-12-17T01:42:17.969Z,5.30
2018-12-17T01:44:45.659Z,5.30
2018-12-17T01:47:13.886Z,5.20
2018-12-17T01:49:41.502Z,5.20
2018-12-17T01:52:09.042Z,5.20
2018-12-17T01:54:36.775Z,5.10
2018-12-17T01:57:05.198Z,5.10
2018-12-17T01:59:33.108Z,5.10
2018-12-17T02:02:00.713Z,5.10
2018-12-17T02:04:28.485Z,5.00
2018-12-17T02:06:56.670Z,4.90
2018-12-17T02:09:24.915Z,5.00
2018-12-17T02:11:53.151Z,5.00
2018-12-17T02:14:21.053Z,5.00
2018-12-17T02:16:48.850Z,4.90
2018-12-17T02:19:16.849Z,4.90
2018-12-17T02:21:45.282Z,4.90
2018-12-17T02:24:13.462Z,4.90
2018-12-17T02:26:41.723Z,5.00
2018-12-17T02:29:09.819Z,5.10
2018-12-17T02:31:37.855Z,5.20
2018-12-17T02:34:05.760Z,5.30
2018-12-17T02:36:33.894Z,5.40
2018-12-17T02:39:01.515Z,5.40
2018-12-17T02:41:29.511Z,5.40
2018-12-17T02:43:58.695Z,5.50
2018-12-17T02:46:26.665Z,5.50
2018-12-17T02:48:54.962Z,5.50
2018-12-17T02:51:23.441Z,5.40
2018-12-17T02:53:51.414Z,5.30
2018-12-17T02:56:18.992Z,5.10
2018-12-17T02:58:47.419Z,5.10
2018-12-17T03:01:15.066Z,5.10
2018-12-17T03:03:42.912Z,5.10
2018-12-17T03:06:11.022Z,5.10
2018-12-17T03:08:39.507Z,5.20
2018-12-17T03:11:07.569Z,5.20
2018-12-17T03:13:36.382Z,5.20
2018-12-17T03:16:04.775Z,5.20
2018-12-17T03:18:32.519Z,5.30
2018-12-17T03:21:00.841Z,5.30
2018-12-17T03:23:28.440Z,5.40
2018-12-17T03:25:56.220Z,5.40
2018-12-17T03:28:24.021Z,5.30
2018-12-17T03:30:52.578Z,5.30
2018-12-17T03:33:20.291Z,5.30
2018-12-17T03:35:48.096Z,5.30
2018-12-17T03:38:15.831Z,5.30
2018-12-17T03:40:43.866Z,5.30
2018-12-17T03:43:11.453Z,5.30
2018-12-17T03:45:39.717Z,5.40
2018-12-17T03:48:07.451Z,5.40
2018-12-17T03:50:35.052Z,5.40
2018-12-17T03:53:02.670Z,5.40
2018-12-17T03:55:30.338Z,5.40
2018-12-17T03:57:58.256Z,5.40
2018-12-17T04:00:26.110Z,5.50
2018-12-17T04:02:54.315Z,5.50
2018-12-17T04:05:22.594Z,5.50
2018-12-17T04:07:51.042Z,5.50
2018-12-17T04:10:18.613Z,5.50
2018-12-17T04:12:46.575Z,5.60
2018-12-17T04:15:14.207Z,5.40
2018-12-17T04:17:41.893Z,5.50
2018-12-17T04:20:10.566Z,5.40
2018-12-17T04:22:38.779Z,5.40
2018-12-17T04:25:07.082Z,5.50
2018-12-17T04:27:35.139Z,5.40
2018-12-17T04:30:04.433Z,5.40
2018-12-17T04:32:32.164Z,5.50
2018-12-17T04:34:59.879Z,5.40
2018-12-17T04:37:27.575Z,5.40
2018-12-17T04:39:56.343Z,5.50
2018-12-17T04:42:24.032Z,5.50
2018-12-17T04:44:52.185Z,5.50
2018-12-17T04:47:19.793Z,5.50
2018-12-17T04:49:47.436Z,5.50
2018-12-17T04:52:15.167Z,5.40
2018-12-17T04:54:42.950Z,5.50
2018-12-17T04:57:11.437Z,5.40
2018-12-17T04:59:39.924Z,5.40
2018-12-17T05:02:07.759Z,5.40
2018-12-17T05:04:35.450Z,5.40
2018-12-17T05:07:03.119Z,5.40
2018-12-17T05:09:30.688Z,5.50
2018-12-17T05:11:58.358Z,5.50
2018-12-17T05:14:26.470Z,5.40
2018-12-17T05:16:54.145Z,5.30
2018-12-17T05:19:22.367Z,5.40
2018-12-17T05:21:51.203Z,5.40
2018-12-17T05:24:18.923Z,5.50
2018-12-17T05:26:47.726Z,5.50
2018-12-17T05:29:21.535Z,5.50
2018-12-17T05:31:46.282Z,5.50
2018-12-17T05:34:14.015Z,5.50
2018-12-17T05:36:41.794Z,5.50
2018-12-17T05:39:10.347Z,5.50
2018-12-17T05:41:38.257Z,5.60
2018-12-17T05:44:06.002Z,5.60
2018-12-17T05:46:33.838Z,5.60
2018-12-17T05:49:01.535Z,5.60
2018-12-17T05:51:29.515Z,5.60
2018-12-17T05:53:57.059Z,5.50
2018-12-17T05:56:25.448Z,5.50
2018-12-17T05:58:53.704Z,5.40
2018-12-17T06:01:22.106Z,5.40
2018-12-17T06:03:49.743Z,5.30
2018-12-17T06:06:17.879Z,5.30
2018-12-17T06:08:45.537Z,5.30
2018-12-17T06:11:13.267Z,5.20
2018-12-17T06:13:41.423Z,5.20
2018-12-17T06:16:09.757Z,5.20
2018-12-17T06:18:37.985Z,5.20
2018-12-17T06:21:06.089Z,5.30
2018-12-17T06:23:34.789Z,5.30
2018-12-17T06:26:02.953Z,5.30
2018-12-17T06:28:30.807Z,5.30
2018-12-17T06:30:59.176Z,5.40
2018-12-17T06:33:27.210Z,5.40
2018-12-17T06:35:55.317Z,5.30
2018-12-17T06:38:23.998Z,5.30
2018-12-17T06:40:52.037Z,5.30
2018-12-17T06:43:19.695Z,5.20
2018-12-17T06:45:48.687Z,5.10
2018-12-17T06:48:17.196Z,5.20
2018-12-17T06:50:46.118Z,5.20
2018-12-17T06:53:14.024Z,5.30
2018-12-17T06:55:41.788Z,5.20
2018-12-17T06:58:09.970Z,5.30
2018-12-17T07:00:38.149Z,5.30
2018-12-17T07:03:07.038Z,5.20
2018-12-17T07:05:35.295Z,5.20
2018-12-17T07:08:04.418Z,5.20
2018-12-17T07:10:32.055Z,5.10
2018-12-17T07:12:59.888Z,5.00
2018-12-17T07:15:28.201Z,5.00
2018-12-17T07:17:56.041Z,5.00
2018-12-17T07:20:23.661Z,5.00
2018-12-17T07:22:51.337Z,5.00
2018-12-17T07:25:19.636Z,4.90
2018-12-17T07:27:47.950Z,4.80
2018-12-17T07:30:16.998Z,4.80
2018-12-17T07:32:45.005Z,4.80
2018-12-17T07:35:12.814Z,4.80
2018-12-17T07:37:41.557Z,4.90
2018-12-17T07:40:09.406Z,4.80
2018-12-17T07:42:38.538Z,4.90
2018-12-17T07:45:07.204Z,4.80
2018-12-17T07:47:35.097Z,4.80
2018-12-17T07:50:03.322Z,4.80
2018-12-17T07:52:31.280Z,4.80
2018-12-17T07:54:59.596Z,4.90
2018-12-17T07:57:27.427Z,4.90
2018-12-17T07:59:56.878Z,4.90
2018-12-17T08:02:25.149Z,4.90
2018-12-17T08:04:53.390Z,4.90
2018-12-17T08:07:21.126Z,4.80
2018-12-17T08:09:48.869Z,4.80
2018-12-17T08:12:16.903Z,4.80
2018-12-17T08:14:44.840Z,4.70
2018-12-17T08:17:13.444Z,4.70
2018-12-17T08:19:41.283Z,4.80
2018-12-17T08:22:09.103Z,4.80
2018-12-17T08:24:36.756Z,4.80
2018-12-17T08:27:04.839Z,4.80
2018-12-17T08:29:32.891Z,4.70
2018-12-17T08:32:01.947Z,4.70
2018-12-17T08:34:29.735Z,4.70
2018-12-17T08:36:57.675Z,4.80
2018-12-17T08:39:25.533Z,4.80
2018-12-17T08:41:54.116Z,4.80
2018-12-17T08:44:22.600Z,4.80
2018-12-17T08:46:50.526Z,4.80
2018-12-17T08:49:18.288Z,4.80
2018-12-17T08:51:46.736Z,4.70
2018-12-17T08:54:14.928Z,4.70
2018-12-17T08:56:43.881Z,4.70
2018-12-17T08:59:12.508Z,4.70
2018-12-17T09:01:40.339Z,4.70
2018-12-17T09:04:08.951Z,4.80
2018-12-17T09:06:37.438Z,4.80
2018-12-17T09:09:06.998Z,4.90
2018-12-17T09:11:34.677Z,4.90
2018-12-17T09:14:02.627Z,4.80
2018-12-17T09:16:30.600Z,4.80
2018-12-17T09:18:58.221Z,4.80
2018-12-17T09:21:26.021Z,4.80
2018-12-17T09:23:54.458Z,4.80
2018-12-17T09:26:22.511Z,4.90
2018-12-17T09:28:51.047Z,5.00
2018-12-17T09:31:18.906Z,5.00
2018-12-17T09:33:47.067Z,5.00
2018-12-17T09:36:15.045Z,5.00
2018-12-17T09:38:43.047Z,4.90
2018-12-17T09:41:10.937Z,4.90
2018-12-17T09:43:39.157Z,4.90
2018-12-17T09:46:07.677Z,4.90
2018-12-17T09:48:35.714Z,4.80
2018-12-17T09:51:03.446Z,4.90
2018-12-17T09:53:31.106Z,4.90
2018-12-17T09:55:59.938Z,4.90
2018-12-17T09:58:27.590Z,4.80
2018-12-17T10:00:56.449Z,4.70
2018-12-17T10:03:25.084Z,4.70
2018-12-17T10:05:53.465Z,4.70
2018-12-17T10:08:21.207Z,4.70
2018-12-17T10:10:50.186Z,4.70
2018-12-17T10:13:17.877Z,4.60
2018-12-17T10:15:45.489Z,4.60
2018-12-17T10:18:13.107Z,4.60
2018-12-17T10:20:41.557Z,4.60
2018-12-17T10:23:09.236Z,4.60
2018-12-17T10:25:36.867Z,4.70
2018-12-17T10:28:04.578Z,4.80
2018-12-17T10:30:32.938Z,4.80
2018-12-17T10:33:01.367Z,4.80
2018-12-17T10:35:29.739Z,4.70
2018-12-17T10:37:57.459Z,4.70
2018-12-17T10:40:25.914Z,4.80
2018-12-17T10:42:53.578Z,4.70
2018-12-17T10:45:21.471Z,4.80
2018-12-17T10:47:49.057Z,4.80
2018-12-17T10:50:16.850Z,4.70
2018-12-17T10:52:45.734Z,4.80
2018-12-17T10:55:14.246Z,4.80
2018-12-17T10:57:42.324Z,4.70
2018-12-17T11:00:16.042Z,4.70
2018-12-17T11:02:43.929Z,4.70
2018-12-17T11:05:16.511Z,4.70
2018-12-17T11:07:44.351Z,4.70
2018-12-17T11:10:12.195Z,4.70
2018-12-17T11:12:40.727Z,4.70
2018-12-17T11:15:10.221Z,4.80
2018-12-17T11:17:38.466Z,4.70
2018-12-17T11:20:08.340Z,4.70
2018-12-17T11:22:36.830Z,4.70
2018-12-17T11:25:05.553Z,4.70
2018-12-17T11:27:34.623Z,4.80
2018-12-17T11:30:02.438Z,4.80
2018-12-17T11:32:30.263Z,4.90
2018-12-17T11:34:58.032Z,4.80
2018-12-17T11:37:25.660Z,4.90
2018-12-17T11:39:57.098Z,4.90
2018-12-17T11:42:24.821Z,4.90
2018-12-17T11:44:53.938Z,4.80
2018-12-17T11:47:21.786Z,4.90
2018-12-17T11:49:49.522Z,4.90
2018-12-17T11:52:17.131Z,5.00
2018-12-17T11:54:45.374Z,4.90
2018-12-17T11:57:28.082Z,5.00
2018-12-17T11:59:56.230Z,4.90
2018-12-17T12:02:25.153Z,5.00
2018-12-17T12:04:53.911Z,5.00
2018-12-17T12:07:21.737Z,5.10
2018-12-17T12:09:49.445Z,5.10
2018-12-17T12:12:17.039Z,5.10
2018-12-17T12:14:45.539Z,5.00
2018-12-17T12:17:13.163Z,5.00
2018-12-17T12:19:40.796Z,5.00
2018-12-17T12:22:08.483Z,5.00
2018-12-17T12:24:36.294Z,5.00
2018-12-17T12:27:04.576Z,5.10
2018-12-17T12:29:32.269Z,5.10
2018-12-17T12:32:00.019Z,5.20
2018-12-17T12:34:27.885Z,5.20
2018-12-17T12:36:55.892Z,5.20
2018-12-17T12:39:24.820Z,5.20
2018-12-17T12:41:53.058Z,5.10
2018-12-17T12:44:20.703Z,5.20
2018-12-17T12:46:49.723Z,5.20
2018-12-17T12:49:17.396Z,5.20
2018-12-17T12:51:44.986Z,5.20
2018-12-17T12:54:12.639Z,5.20
2018-12-17T12:56:41.165Z,5.20
2018-12-17T12:59:09.050Z,5.20
2018-12-17T13:01:36.816Z,5.30
2018-12-17T13:04:05.136Z,5.30
2018-12-17T13:06:32.860Z,5.30
2018-12-17T13:09:00.703Z,5.30
2018-12-17T13:11:28.392Z,5.40
2018-12-17T13:13:56.169Z,5.30
2018-12-17T13:16:23.879Z,5.40
2018-12-17T13:18:51.702Z,5.40
2018-12-17T13:21:19.590Z,5.50
2018-12-17T13:23:47.277Z,5.40
2018-12-17T13:26:15.001Z,5.40
2018-12-17T13:28:44.174Z,5.50
2018-12-17T13:31:14.802Z,5.50
2018-12-17T13:33:41.598Z,5.50
2018-12-17T13:36:09.572Z,5.60
2018-12-17T13:38:37.367Z,5.60
2018-12-17T13:41:05.348Z,5.70
2018-12-17T13:43:34.457Z,5.60
2018-12-17T13:46:02.729Z,5.60
2018-12-17T13:48:30.343Z,5.70
2018-12-17T13:51:02.876Z,5.70
2018-12-17T13:53:32.571Z,5.60
2018-12-17T13:56:00.567Z,5.60
2018-12-17T13:58:29.580Z,5.70
2018-12-17T14:00:57.992Z,5.80
2018-12-17T14:03:25.644Z,5.80
2018-12-17T14:05:53.277Z,5.80
2018-12-17T14:08:21.598Z,5.80
2018-12-17T14:10:53.102Z,5.90
2018-12-17T14:13:21.389Z,5.80
2018-12-17T14:15:51.703Z,5.70
2018-12-17T14:18:25.452Z,5.70
2018-12-17T14:20:58.948Z,5.80
2018-12-17T14:23:26.633Z,5.70
2018-12-17T14:25:54.366Z,5.70
2018-12-17T14:28:22.023Z,5.70
2018-12-17T14:30:49.791Z,5.70
2018-12-17T14:33:17.445Z,5.70
2018-12-17T14:36:19.238Z,5.70
2018-12-17T14:38:46.967Z,5.70
2018-12-17T14:41:14.616Z,5.70
2018-12-17T14:43:42.335Z,5.70
2018-12-17T14:46:10.041Z,5.70
2018-12-17T14:48:37.840Z,5.70
2018-12-17T14:51:05.653Z,5.70
2018-12-17T14:53:33.464Z,5.70
2018-12-17T14:56:02.190Z,5.70
2018-12-17T14:58:29.865Z,5.60
2018-12-17T15:00:57.681Z,5.70
2018-12-17T15:03:25.498Z,5.70
2018-12-17T15:05:53.198Z,5.70
2018-12-17T15:08:21.600Z,5.70
2018-12-17T15:10:49.541Z,5.70
2018-12-17T15:13:18.584Z,5.80
2018-12-17T15:15:46.249Z,5.70
2018-12-17T15:18:14.131Z,5.70
2018-12-17T15:20:41.859Z,5.80
2018-12-17T15:23:09.915Z,5.80
2018-12-17T15:25:37.818Z,5.80
2018-12-17T15:28:05.568Z,5.70
2018-12-17T15:30:34.638Z,5.80
2018-12-17T15:33:02.947Z,5.80
2018-12-17T15:35:30.710Z,5.80
2018-12-17T15:37:58.585Z,5.90
2018-12-17T15:40:26.391Z,5.90
2018-12-17T15:42:54.090Z,5.90
2018-12-17T15:45:23.291Z,5.90
2018-12-17T15:47:50.955Z,5.90
2018-12-17T15:50:18.771Z,5.90
2018-12-17T15:52:46.464Z,5.90
2018-12-17T15:55:15.843Z,5.90
2018-12-17T15:57:43.532Z,5.90
2018-12-17T16:00:14.035Z,5.90
2018-12-17T16:02:41.927Z,6.00
2018-12-17T16:05:10.122Z,6.00
2018-12-17T16:07:38.213Z,6.00
2018-12-17T16:10:06.813Z,6.00
2018-12-17T16:12:35.377Z,6.00
2018-12-17T16:15:03.574Z,6.00
2018-12-17T16:17:32.312Z,6.00
2018-12-17T16:20:00.330Z,6.00
2018-12-17T16:22:28.331Z,6.00
2018-12-17T16:24:56.911Z,6.00
2018-12-17T16:27:24.710Z,6.00
2018-12-17T16:29:52.659Z,6.00
2018-12-17T16:32:21.112Z,6.10
2018-12-17T16:34:48.927Z,6.10
2018-12-17T16:37:16.676Z,6.10
2018-12-17T16:39:44.764Z,6.00
2018-12-17T16:42:13.620Z,6.00
2018-12-17T16:44:41.408Z,6.10
2018-12-17T16:47:09.060Z,6.10
2018-12-17T16:49:36.768Z,6.10
2018-12-17T16:52:04.585Z,6.10
2018-12-17T16:54:33.041Z,6.20
2018-12-17T16:57:01.067Z,6.20
2018-12-17T16:59:29.463Z,6.10
2018-12-17T17:01:57.092Z,6.10
2018-12-17T17:04:26.095Z,6.20
2018-12-17T17:06:53.834Z,6.20
2018-12-17T17:09:21.463Z,6.20
2018-12-17T17:11:50.488Z,6.20
2018-12-17T17:14:18.285Z,6.20
2018-12-17T17:16:45.950Z,6.20
2018-12-17T17:19:14.977Z,6.20
2018-12-17T17:21:42.611Z,6.20
2018-12-17T17:24:10.803Z,6.20
2018-12-17T17:26:39.055Z,6.20
2018-12-17T17:29:06.990Z,6.20
2018-12-17T17:31:35.065Z,6.20
2018-12-17T17:34:02.940Z,6.20
2018-12-17T17:36:30.880Z,6.20
2018-12-17T17:38:58.555Z,6.30
2018-12-17T17:41:27.675Z,6.30
2018-12-17T17:43:55.806Z,6.30
2018-12-17T17:46:24.543Z,6.30
2018-12-17T17:48:53.093Z,6.30
2018-12-17T17:51:20.978Z,6.30
2018-12-17T17:53:48.758Z,6.30
2018-12-17T17:56:17.573Z,6.30
2018-12-17T17:58:45.889Z,6.20
2018-12-17T18:01:13.998Z,6.30
2018-12-17T18:03:41.851Z,6.20
2018-12-17T18:06:16.087Z,6.30
2018-12-17T18:08:40.044Z,6.30
2018-12-17T18:11:07.999Z,6.30
2018-12-17T18:13:35.759Z,6.30
2018-12-17T18:16:04.544Z,6.20
2018-12-17T18:18:33.050Z,6.20
2018-12-17T18:21:01.599Z,6.20
2018-12-17T18:23:29.682Z,6.30
2018-12-17T18:25:59.999Z,6.30
2018-12-17T18:28:28.101Z,6.30
2018-12-17T18:30:56.972Z,6.30
2018-12-17T18:33:25.131Z,6.20
2018-12-17T18:35:53.197Z,6.30
2018-12-17T18:38:21.034Z,6.30
2018-12-17T18:40:49.591Z,6.30
2018-12-17T18:43:17.413Z,6.30
2018-12-17T18:45:45.393Z,6.40
2018-12-17T18:48:13.131Z,6.40
2018-12-17T18:50:41.531Z,6.40
2018-12-17T18:53:10.198Z,6.40
2018-12-17T18:55:37.991Z,6.40
2018-12-17T18:58:05.788Z,6.40
2018-12-17T19:00:33.486Z,6.40
2018-12-17T19:03:01.895Z,6.50
2018-12-17T19:05:30.312Z,6.40
2018-12-17T19:07:58.853Z,6.40
2018-12-17T19:10:31.206Z,6.30
2018-12-17T19:13:00.211Z,6.30
2018-12-17T19:15:29.278Z,6.30
2018-12-17T19:17:57.207Z,6.30
2018-12-17T19:20:24.980Z,6.30
2018-12-17T19:22:54.167Z,6.30
2018-12-17T19:25:21.867Z,6.30
2018-12-17T19:27:50.354Z,6.30
2018-12-17T19:30:19.258Z,6.30
2018-12-17T19:32:47.696Z,6.30
2018-12-17T19:35:15.417Z,6.30
2018-12-17T19:37:43.985Z,6.40
2018-12-17T19:40:12.519Z,6.40
2018-12-17T19:42:41.458Z,6.40
2018-12-17T19:45:09.859Z,6.40
2018-12-17T19:47:37.902Z,6.40
2018-12-17T19:50:06.789Z,6.40
2018-12-17T19:52:34.698Z,6.40
2018-12-17T19:55:02.657Z,6.40
2018-12-17T19:57:31.124Z,6.40
2018-12-17T19:59:59.488Z,6.50
2018-12-17T20:02:28.698Z,6.50
2018-12-17T20:04:56.846Z,6.50
2018-12-17T20:07:24.560Z,6.50
2018-12-17T20:09:52.471Z,6.50
2018-12-17T20:12:21.071Z,6.60
2018-12-17T20:14:48.955Z,6.60
2018-12-17T20:17:17.439Z,6.50
2018-12-17T20:19:45.181Z,6.50
2018-12-17T20:22:12.890Z,6.50
2018-12-17T20:24:40.807Z,6.50
2018-12-17T20:27:08.547Z,6.50
2018-12-17T20:29:37.782Z,6.50
2018-12-17T20:32:05.709Z,6.50
2018-12-17T20:34:33.482Z,6.40
2018-12-17T20:37:01.396Z,6.40
2018-12-17T20:39:29.113Z,6.40
2018-12-17T20:41:56.966Z,6.40
2018-12-17T20:44:25.313Z,6.40
2018-12-17T20:46:53.492Z,6.40
2018-12-17T20:49:21.229Z,6.50
2018-12-17T20:51:49.386Z,6.50
2018-12-17T20:54:17.146Z,6.60
2018-12-17T20:56:45.232Z,6.50
2018-12-17T20:59:12.951Z,6.50
2018-12-17T21:01:40.827Z,6.50
2018-12-17T21:04:08.692Z,6.40
2018-12-17T21:06:36.672Z,6.40
2018-12-17T21:09:07.599Z,6.50
2018-12-17T21:11:35.380Z,6.50
2018-12-17T21:14:03.843Z,6.50
2018-12-17T21:16:31.786Z,6.50
2018-12-17T21:18:59.569Z,6.60
2018-12-17T21:21:27.261Z,6.60
2018-12-17T21:23:55.002Z,6.50
2018-12-17T21:26:22.778Z,6.50
2018-12-17T21:28:50.608Z,6.50
2018-12-17T21:31:18.373Z,6.50
2018-12-17T21:33:46.118Z,6.50
2018-12-17T21:36:15.369Z,6.50
2018-12-17T21:38:42.962Z,6.60
2018-12-17T21:41:10.967Z,6.60
2018-12-17T21:43:38.723Z,6.60
2018-12-17T21:46:06.561Z,6.50
2018-12-17T21:48:34.946Z,6.50
2018-12-17T21:51:02.745Z,6.50
2018-12-17T21:53:30.401Z,6.60
2018-12-17T21:55:58.009Z,6.60
2018-12-17T21:58:25.630Z,6.60
2018-12-17T22:00:53.326Z,6.50
2018-12-17T22:03:22.197Z,6.50
2018-12-17T22:05:50.451Z,6.50
2018-12-17T22:08:18.219Z,6.50
2018-12-17T22:10:45.907Z,6.50
2018-12-17T22:13:15.014Z,6.50
2018-12-17T22:15:42.654Z,6.50
2018-12-17T22:18:10.274Z,6.50
2018-12-17T22:20:37.874Z,6.50
2018-12-17T22:23:05.595Z,6.60
2018-12-17T22:25:33.473Z,6.60
2018-12-17T22:28:01.294Z,6.60
2018-12-17T22:30:28.911Z,6.60
2018-12-17T22:32:57.300Z,6.60
2018-12-17T22:35:24.990Z,6.60
2018-12-17T22:37:52.590Z,6.60
2018-12-17T22:40:20.348Z,6.60
2018-12-17T22:42:48.055Z,6.60
2018-12-17T22:45:15.771Z,6.60
2018-12-17T22:47:43.364Z,6.70
2018-12-17T22:50:10.998Z,6.70
2018-12-17T22:52:38.733Z,6.60
2018-12-17T22:55:07.422Z,6.60
2018-12-17T22:57:35.344Z,6.60
2018-12-17T23:00:04.972Z,6.60
2018-12-17T23:02:32.574Z,6.60
2018-12-17T23:05:00.963Z,6.60
2018-12-17T23:07:28.706Z,6.70
2018-12-17T23:10:07.774Z,6.70
2018-12-17T23:12:46.994Z,6.60
2018-12-17T23:15:26.258Z,6.70
2018-12-17T23:17:53.622Z,6.70
2018-12-17T23:20:22.240Z,6.70
2018-12-17T23:22:50.614Z,6.70
2018-12-17T23:25:20.836Z,6.70
2018-12-17T23:27:50.226Z,6.70
2018-12-17T23:30:20.320Z,6.70
2018-12-17T23:32:48.630Z,6.70
2018-12-17T23:35:16.947Z,6.60
2018-12-17T23:37:44.770Z,6.60
2018-12-17T23:40:12.573Z,6.70
2018-12-17T23:42:40.195Z,6.70
2018-12-17T23:45:08.059Z,6.70
2018-12-17T23:47:35.762Z,6.70
2018-12-17T23:50:05.496Z,6.70
2018-12-17T23:52:33.171Z,6.70
2018-12-17T23:55:01.209Z,6.70
2018-12-17T23:57:28.867Z,6.70
2018-12-17T23:59:56.594Z,6.70
